createdAt,value
2019-03-19T15:02:38.484Z,49.80
2019-03-19T15:05:09.135Z,51.50
2019-03-19T15:07:40.198Z,50.90
2019-03-19T15:10:12.523Z,51.50
2019-03-19T15:12:42.605Z,51.90
2019-03-19T15:15:13.415Z,51.30
2019-03-19T15:17:43.126Z,51.80
2019-03-19T15:20:17.339Z,51.70
2019-03-19T15:22:47.092Z,52.10
2019-03-19T15:25:17.401Z,53.50
2019-03-19T15:27:47.378Z,53.80
2019-03-19T15:30:17.358Z,54.20
2019-03-19T15:32:46.970Z,54.00
2019-03-19T15:35:18.054Z,55.00
2019-03-19T15:37:48.184Z,55.80
2019-03-19T15:40:21.131Z,56.80
2019-03-19T15:42:51.902Z,56.30
2019-03-19T15:45:21.578Z,57.50
2019-03-19T15:47:52.722Z,58.50
2019-03-19T15:50:23.106Z,58.30
2019-03-19T15:52:53.210Z,58.70
2019-03-19T15:55:24.684Z,57.90
2019-03-19T15:57:55.075Z,57.40
2019-03-19T16:00:25.092Z,57.60
2019-03-19T16:02:57.242Z,57.60
2019-03-19T16:05:27.688Z,56.70
2019-03-19T16:07:58.044Z,56.30
2019-03-19T16:10:28.114Z,56.90
2019-03-19T16:12:58.379Z,57.80
2019-03-19T16:15:28.808Z,57.60
2019-03-19T16:17:58.878Z,57.70
2019-03-19T16:20:28.894Z,57.30
2019-03-19T16:22:58.926Z,57.80
2019-03-19T16:25:28.951Z,57.60
2019-03-19T16:27:58.988Z,58.50
2019-03-19T16:30:29.382Z,58.70
2019-03-19T16:32:59.083Z,58.80
2019-03-19T16:35:29.515Z,58.30
2019-03-19T16:37:59.169Z,58.00
2019-03-19T16:40:29.520Z,58.40
2019-03-19T16:42:59.479Z,58.80
2019-03-19T16:45:30.028Z,59.60
2019-03-19T16:48:00.665Z,58.80
2019-03-19T16:50:30.927Z,58.20
2019-03-19T16:53:00.588Z,57.90
2019-03-19T16:55:30.966Z,58.30
2019-03-19T16:58:01.130Z,58.70
2019-03-19T17:00:31.749Z,59.90
2019-03-19T17:03:04.745Z,60.70
2019-03-19T17:05:34.344Z,61.10
2019-03-19T17:08:05.031Z,62.30
2019-03-19T17:10:34.383Z,62.10
2019-03-19T17:13:04.939Z,62.70
2019-03-19T17:15:35.030Z,63.20
2019-03-19T17:18:09.031Z,64.00
2019-03-19T17:20:39.291Z,64.20
2019-03-19T17:23:09.265Z,64.40
2019-03-19T17:25:38.565Z,64.50
2019-03-19T17:28:08.269Z,64.80
2019-03-19T17:30:38.227Z,65.20
2019-03-19T17:33:08.659Z,66.00
2019-03-19T17:35:38.654Z,67.20
2019-03-19T17:38:09.980Z,68.90
2019-03-19T17:40:41.789Z,69.30
2019-03-19T17:43:12.663Z,69.80
2019-03-19T17:45:43.120Z,70.90
2019-03-19T17:48:16.398Z,73.50
2019-03-19T17:50:44.596Z,76.50
2019-03-19T17:53:15.011Z,75.30
2019-03-19T17:55:45.264Z,76.30
2019-03-19T17:58:15.468Z,77.80
2019-03-19T18:00:47.803Z,76.90
2019-03-19T18:03:17.133Z,78.80
2019-03-19T18:05:47.546Z,79.50
2019-03-19T18:08:17.549Z,82.80
2019-03-19T18:10:47.581Z,80.10
2019-03-19T18:13:17.916Z,79.70
2019-03-19T18:15:47.526Z,79.80
2019-03-19T18:18:18.267Z,79.60
2019-03-19T18:20:48.964Z,79.90
2019-03-19T18:23:19.474Z,80.60
2019-03-19T18:25:49.647Z,78.00
2019-03-19T18:28:19.000Z,79.50
2019-03-19T18:30:49.716Z,79.40
2019-03-19T18:33:20.114Z,81.70
2019-03-19T18:35:50.227Z,81.80
2019-03-19T18:38:19.971Z,82.10
2019-03-19T18:40:51.528Z,82.40
2019-03-19T18:43:21.681Z,82.70
2019-03-19T18:45:52.574Z,83.20
2019-03-19T18:48:23.093Z,81.80
2019-03-19T18:50:52.766Z,80.50
2019-03-19T18:53:22.041Z,79.30
2019-03-19T18:55:51.984Z,80.20
2019-03-19T18:58:21.675Z,80.40
2019-03-19T19:00:51.992Z,80.80
2019-03-19T19:03:22.233Z,80.90
2019-03-19T19:05:52.433Z,81.90
2019-03-19T19:08:24.773Z,82.10
2019-03-19T19:10:53.499Z,83.70
2019-03-19T19:13:23.914Z,86.10
2019-03-19T19:15:54.018Z,84.70
2019-03-19T19:18:24.212Z,85.20
2019-03-19T19:20:55.107Z,86.10
2019-03-19T19:23:25.852Z,86.10
2019-03-19T19:25:56.353Z,86.40
2019-03-19T19:28:25.699Z,84.90
2019-03-19T19:30:57.479Z,85.50
2019-03-19T19:33:27.673Z,85.20
2019-03-19T19:35:57.681Z,90.00
2019-03-19T19:38:28.039Z,84.90
2019-03-19T19:40:58.143Z,84.20
2019-03-19T19:43:28.258Z,85.00
2019-03-19T19:45:58.683Z,86.70
2019-03-19T19:48:29.020Z,87.80
2019-03-19T19:50:59.159Z,88.20
2019-03-19T19:53:29.219Z,88.20
2019-03-19T19:55:59.627Z,87.80
2019-03-19T19:58:30.028Z,88.20
2019-03-19T20:01:00.131Z,89.30
2019-03-19T20:03:30.410Z,89.70
2019-03-19T20:06:01.118Z,90.20
2019-03-19T20:08:31.278Z,90.40
2019-03-19T20:11:01.693Z,90.60
2019-03-19T20:13:32.095Z,90.70
2019-03-19T20:16:02.548Z,91.00
2019-03-19T20:18:34.707Z,91.00
2019-03-19T20:21:04.042Z,90.70
2019-03-19T20:23:34.319Z,90.90
2019-03-19T20:26:04.704Z,91.10
2019-03-19T20:28:35.512Z,91.60
2019-03-19T20:31:05.837Z,91.50
2019-03-19T20:33:38.426Z,91.60
2019-03-19T20:36:08.465Z,91.80
2019-03-19T20:38:38.976Z,91.30
2019-03-19T20:41:09.393Z,91.50
2019-03-19T20:43:42.756Z,91.30
2019-03-19T20:46:12.996Z,91.40
2019-03-19T20:48:42.735Z,91.80
2019-03-19T20:51:13.544Z,91.90
2019-03-19T20:53:43.275Z,91.80
2019-03-19T20:56:13.711Z,92.20
2019-03-19T20:58:44.083Z,92.50
